sensor_id;sensor_type;location;lat;lon;timestamp;P1;durP1;ratioP1;P2;durP2;ratioP2
31128;SDS011;17777;48.770;8.944;2024-02-26T00:01:42;5.07;;;3.33;;
31128;SDS011;17777;48.770;8.944;2024-02-26T00:04:09;6.03;;;3.22;;
31128;SDS011;17777;48.770;8.944;2024-02-26T00:06:36;5.10;;;3.00;;
31128;SDS011;17777;48.770;8.944;2024-02-26T00:09:02;4.97;;;3.45;;
31128;SDS011;17777;48.770;8.944;2024-02-26T00:11:31;4.47;;;3.17;;
31128;SDS011;17777;48.770;8.944;2024-02-26T00:13:57;6.22;;;3.75;;
31128;SDS011;17777;48.770;8.944;2024-02-26T00:16:23;5.15;;;3.70;;
31128;SDS011;17777;48.770;8.944;2024-02-26T00:18:49;7.35;;;3.13;;
31128;SDS011;17777;48.770;8.944;2024-02-26T00:21:15;7.70;;;3.95;;
31128;SDS011;17777;48.770;8.944;2024-02-26T00:23:41;3.90;;;2.75;;
31128;SDS011;17777;48.770;8.944;2024-02-26T00:26:06;4.50;;;3.28;;
31128;SDS011;17777;48.770;8.944;2024-02-26T00:28:33;4.25;;;2.70;;
31128;SDS011;17777;48.770;8.944;2024-02-26T00:30:59;4.05;;;2.47;;
31128;SDS011;17777;48.770;8.944;2024-02-26T00:33:24;3.30;;;2.50;;
31128;SDS011;17777;48.770;8.944;2024-02-26T00:35:50;3.22;;;2.50;;
31128;SDS011;17777;48.770;8.944;2024-02-26T00:38:16;3.30;;;2.35;;
31128;SDS011;17777;48.770;8.944;2024-02-26T00:40:42;2.08;;;1.80;;
31128;SDS011;17777;48.770;8.944;2024-02-26T00:43:08;2.92;;;2.22;;
31128;SDS011;17777;48.770;8.944;2024-02-26T00:45:34;4.85;;;2.50;;
31128;SDS011;17777;48.770;8.944;2024-02-26T00:48:00;3.13;;;2.28;;
31128;SDS011;17777;48.770;8.944;2024-02-26T00:50:29;2.30;;;1.90;;
31128;SDS011;17777;48.770;8.944;2024-02-26T00:53:01;2.80;;;1.80;;
31128;SDS011;17777;48.770;8.944;2024-02-26T00:55:27;2.50;;;1.75;;
31128;SDS011;17777;48.770;8.944;2024-02-26T00:57:53;2.38;;;1.98;;
31128;SDS011;17777;48.770;8.944;2024-02-26T01:00:19;2.95;;;1.58;;
31128;SDS011;17777;48.770;8.944;2024-02-26T01:02:45;3.20;;;2.00;;
31128;SDS011;17777;48.770;8.944;2024-02-26T01:05:14;2.58;;;1.92;;
31128;SDS011;17777;48.770;8.944;2024-02-26T01:07:41;5.80;;;1.73;;
31128;SDS011;17777;48.770;8.944;2024-02-26T01:10:07;3.92;;;1.80;;
31128;SDS011;17777;48.770;8.944;2024-02-26T01:12:34;3.35;;;1.83;;
31128;SDS011;17777;48.770;8.944;2024-02-26T01:15:03;2.47;;;1.67;;
31128;SDS011;17777;48.770;8.944;2024-02-26T01:17:30;1.73;;;1.13;;
31128;SDS011;17777;48.770;8.944;2024-02-26T01:19:56;2.10;;;1.40;;
31128;SDS011;17777;48.770;8.944;2024-02-26T01:22:21;1.50;;;1.27;;
31128;SDS011;17777;48.770;8.944;2024-02-26T01:24:48;2.42;;;1.45;;
31128;SDS011;17777;48.770;8.944;2024-02-26T01:27:14;1.95;;;1.52;;
31128;SDS011;17777;48.770;8.944;2024-02-26T01:29:40;2.63;;;1.85;;
31128;SDS011;17777;48.770;8.944;2024-02-26T01:32:07;2.05;;;1.45;;
31128;SDS011;17777;48.770;8.944;2024-02-26T01:34:33;2.53;;;1.90;;
31128;SDS011;17777;48.770;8.944;2024-02-26T01:36:58;4.45;;;2.17;;
31128;SDS011;17777;48.770;8.944;2024-02-26T01:39:25;2.85;;;1.92;;
31128;SDS011;17777;48.770;8.944;2024-02-26T01:41:54;2.78;;;2.20;;
31128;SDS011;17777;48.770;8.944;2024-02-26T01:44:19;2.53;;;1.90;;
31128;SDS011;17777;48.770;8.944;2024-02-26T01:46:46;3.00;;;2.00;;
31128;SDS011;17777;48.770;8.944;2024-02-26T01:49:13;2.22;;;1.77;;
31128;SDS011;17777;48.770;8.944;2024-02-26T01:51:40;4.63;;;2.20;;
31128;SDS011;17777;48.770;8.944;2024-02-26T01:54:08;2.33;;;1.73;;
31128;SDS011;17777;48.770;8.944;2024-02-26T01:56:34;2.53;;;1.90;;
31128;SDS011;17777;48.770;8.944;2024-02-26T01:59:01;3.13;;;2.22;;
31128;SDS011;17777;48.770;8.944;2024-02-26T02:01:29;2.08;;;1.60;;
31128;SDS011;17777;48.770;8.944;2024-02-26T02:03:57;2.67;;;1.83;;
31128;SDS011;17777;48.770;8.944;2024-02-26T02:06:25;2.70;;;1.58;;
31128;SDS011;17777;48.770;8.944;2024-02-26T02:08:54;2.08;;;1.70;;
31128;SDS011;17777;48.770;8.944;2024-02-26T02:11:20;2.53;;;1.75;;
31128;SDS011;17777;48.770;8.944;2024-02-26T02:13:45;2.75;;;1.63;;
31128;SDS011;17777;48.770;8.944;2024-02-26T02:16:12;1.60;;;1.30;;
31128;SDS011;17777;48.770;8.944;2024-02-26T02:18:38;1.60;;;1.35;;
31128;SDS011;17777;48.770;8.944;2024-02-26T02:21:04;1.73;;;1.10;;
31128;SDS011;17777;48.770;8.944;2024-02-26T02:23:30;4.88;;;1.15;;
31128;SDS011;17777;48.770;8.944;2024-02-26T02:25:56;1.95;;;1.38;;
31128;SDS011;17777;48.770;8.944;2024-02-26T02:28:23;1.40;;;1.10;;
31128;SDS011;17777;48.770;8.944;2024-02-26T02:30:51;1.30;;;1.20;;
31128;SDS011;17777;48.770;8.944;2024-02-26T02:33:17;1.30;;;1.10;;
31128;SDS011;17777;48.770;8.944;2024-02-26T02:35:43;0.80;;;0.80;;
31128;SDS011;17777;48.770;8.944;2024-02-26T02:38:09;1.40;;;1.05;;
31128;SDS011;17777;48.770;8.944;2024-02-26T02:40:35;1.55;;;1.13;;
31128;SDS011;17777;48.770;8.944;2024-02-26T02:43:01;1.30;;;0.93;;
31128;SDS011;17777;48.770;8.944;2024-02-26T02:45:28;0.73;;;0.60;;
31128;SDS011;17777;48.770;8.944;2024-02-26T02:47:53;0.80;;;0.70;;
31128;SDS011;17777;48.770;8.944;2024-02-26T02:50:19;0.70;;;0.65;;
31128;SDS011;17777;48.770;8.944;2024-02-26T02:52:45;0.50;;;0.50;;
31128;SDS011;17777;48.770;8.944;2024-02-26T02:55:11;0.47;;;0.40;;
31128;SDS011;17777;48.770;8.944;2024-02-26T02:57:38;0.85;;;0.47;;
31128;SDS011;17777;48.770;8.944;2024-02-26T03:00:09;0.40;;;0.40;;
31128;SDS011;17777;48.770;8.944;2024-02-26T03:02:35;0.77;;;0.55;;
31128;SDS011;17777;48.770;8.944;2024-02-26T03:05:02;0.55;;;0.55;;
31128;SDS011;17777;48.770;8.944;2024-02-26T03:07:29;1.02;;;0.52;;
31128;SDS011;17777;48.770;8.944;2024-02-26T03:09:55;0.90;;;0.70;;
31128;SDS011;17777;48.770;8.944;2024-02-26T03:12:20;0.65;;;0.50;;
31128;SDS011;17777;48.770;8.944;2024-02-26T03:14:46;0.75;;;0.55;;
31128;SDS011;17777;48.770;8.944;2024-02-26T03:17:12;0.68;;;0.60;;
31128;SDS011;17777;48.770;8.944;2024-02-26T03:19:38;0.57;;;0.50;;
31128;SDS011;17777;48.770;8.944;2024-02-26T03:22:04;1.58;;;0.50;;
31128;SDS011;17777;48.770;8.944;2024-02-26T03:24:29;0.40;;;0.40;;
31128;SDS011;17777;48.770;8.944;2024-02-26T03:26:55;0.40;;;0.38;;
31128;SDS011;17777;48.770;8.944;2024-02-26T03:29:21;0.93;;;0.50;;
31128;SDS011;17777;48.770;8.944;2024-02-26T03:31:47;0.40;;;0.40;;
31128;SDS011;17777;48.770;8.944;2024-02-26T03:34:13;0.60;;;0.40;;
31128;SDS011;17777;48.770;8.944;2024-02-26T03:36:39;0.40;;;0.40;;
31128;SDS011;17777;48.770;8.944;2024-02-26T03:39:06;0.38;;;0.30;;
31128;SDS011;17777;48.770;8.944;2024-02-26T03:41:35;1.60;;;0.40;;
31128;SDS011;17777;48.770;8.944;2024-02-26T03:44:01;0.40;;;0.40;;
31128;SDS011;17777;48.770;8.944;2024-02-26T03:46:27;0.75;;;0.40;;
31128;SDS011;17777;48.770;8.944;2024-02-26T03:48:53;0.52;;;0.28;;
31128;SDS011;17777;48.770;8.944;2024-02-26T03:51:19;0.55;;;0.47;;
31128;SDS011;17777;48.770;8.944;2024-02-26T03:53:45;0.52;;;0.50;;
31128;SDS011;17777;48.770;8.944;2024-02-26T03:56:11;0.52;;;0.50;;
31128;SDS011;17777;48.770;8.944;2024-02-26T03:58:38;0.30;;;0.30;;
31128;SDS011;17777;48.770;8.944;2024-02-26T04:01:06;0.40;;;0.40;;
31128;SDS011;17777;48.770;8.944;2024-02-26T04:03:33;0.70;;;0.50;;
31128;SDS011;17777;48.770;8.944;2024-02-26T04:05:59;0.38;;;0.38;;
31128;SDS011;17777;48.770;8.944;2024-02-26T04:08:25;0.63;;;0.50;;
31128;SDS011;17777;48.770;8.944;2024-02-26T04:10:51;0.43;;;0.40;;
31128;SDS011;17777;48.770;8.944;2024-02-26T04:13:17;0.40;;;0.40;;
31128;SDS011;17777;48.770;8.944;2024-02-26T04:15:43;0.60;;;0.40;;
31128;SDS011;17777;48.770;8.944;2024-02-26T04:18:09;0.30;;;0.30;;
31128;SDS011;17777;48.770;8.944;2024-02-26T04:20:35;0.50;;;0.50;;
31128;SDS011;17777;48.770;8.944;2024-02-26T04:23:02;0.50;;;0.50;;
31128;SDS011;17777;48.770;8.944;2024-02-26T04:25:28;0.45;;;0.45;;
31128;SDS011;17777;48.770;8.944;2024-02-26T04:27:54;0.70;;;0.60;;
31128;SDS011;17777;48.770;8.944;2024-02-26T04:30:20;0.20;;;0.20;;
31128;SDS011;17777;48.770;8.944;2024-02-26T04:32:46;0.40;;;0.40;;
31128;SDS011;17777;48.770;8.944;2024-02-26T04:35:11;0.95;;;0.50;;
31128;SDS011;17777;48.770;8.944;2024-02-26T04:37:37;1.10;;;0.93;;
31128;SDS011;17777;48.770;8.944;2024-02-26T04:40:03;1.15;;;1.05;;
31128;SDS011;17777;48.770;8.944;2024-02-26T04:42:30;1.52;;;1.13;;
31128;SDS011;17777;48.770;8.944;2024-02-26T04:44:56;1.60;;;1.27;;
31128;SDS011;17777;48.770;8.944;2024-02-26T04:47:22;1.55;;;1.08;;
31128;SDS011;17777;48.770;8.944;2024-02-26T04:49:51;1.60;;;1.13;;
31128;SDS011;17777;48.770;8.944;2024-02-26T04:52:18;1.17;;;1.02;;
31128;SDS011;17777;48.770;8.944;2024-02-26T04:54:45;1.40;;;1.08;;
31128;SDS011;17777;48.770;8.944;2024-02-26T04:57:11;2.28;;;1.33;;
31128;SDS011;17777;48.770;8.944;2024-02-26T04:59:36;2.10;;;1.20;;
31128;SDS011;17777;48.770;8.944;2024-02-26T05:02:03;1.73;;;1.30;;
31128;SDS011;17777;48.770;8.944;2024-02-26T05:04:28;1.88;;;1.48;;
31128;SDS011;17777;48.770;8.944;2024-02-26T05:06:54;3.20;;;2.00;;
31128;SDS011;17777;48.770;8.944;2024-02-26T05:09:20;2.78;;;1.90;;
31128;SDS011;17777;48.770;8.944;2024-02-26T05:11:46;2.42;;;1.75;;
31128;SDS011;17777;48.770;8.944;2024-02-26T05:14:11;3.47;;;2.30;;
31128;SDS011;17777;48.770;8.944;2024-02-26T05:16:37;4.82;;;2.40;;
31128;SDS011;17777;48.770;8.944;2024-02-26T05:19:03;4.43;;;2.63;;
31128;SDS011;17777;48.770;8.944;2024-02-26T05:21:30;5.38;;;2.83;;
31128;SDS011;17777;48.770;8.944;2024-02-26T05:23:56;7.35;;;3.10;;
31128;SDS011;17777;48.770;8.944;2024-02-26T05:26:22;3.47;;;2.30;;
31128;SDS011;17777;48.770;8.944;2024-02-26T05:28:48;3.70;;;2.17;;
31128;SDS011;17777;48.770;8.944;2024-02-26T05:31:15;3.97;;;2.40;;
31128;SDS011;17777;48.770;8.944;2024-02-26T05:33:42;3.65;;;2.33;;
31128;SDS011;17777;48.770;8.944;2024-02-26T05:36:07;3.80;;;2.15;;
31128;SDS011;17777;48.770;8.944;2024-02-26T05:38:34;3.67;;;1.90;;
31128;SDS011;17777;48.770;8.944;2024-02-26T05:41:00;1.98;;;1.30;;
31128;SDS011;17777;48.770;8.944;2024-02-26T05:43:26;2.05;;;1.20;;
31128;SDS011;17777;48.770;8.944;2024-02-26T05:45:53;2.17;;;0.88;;
31128;SDS011;17777;48.770;8.944;2024-02-26T05:48:19;0.77;;;0.77;;
31128;SDS011;17777;48.770;8.944;2024-02-26T05:50:45;1.20;;;0.75;;
31128;SDS011;17777;48.770;8.944;2024-02-26T05:53:12;0.57;;;0.57;;
31128;SDS011;17777;48.770;8.944;2024-02-26T05:55:37;2.88;;;0.73;;
31128;SDS011;17777;48.770;8.944;2024-02-26T05:58:04;0.85;;;0.60;;
31128;SDS011;17777;48.770;8.944;2024-02-26T06:00:30;0.40;;;0.40;;
31128;SDS011;17777;48.770;8.944;2024-02-26T06:02:56;0.73;;;0.55;;
31128;SDS011;17777;48.770;8.944;2024-02-26T06:05:22;0.57;;;0.57;;
31128;SDS011;17777;48.770;8.944;2024-02-26T06:07:47;0.50;;;0.50;;
31128;SDS011;17777;48.770;8.944;2024-02-26T06:10:13;0.38;;;0.38;;
31128;SDS011;17777;48.770;8.944;2024-02-26T06:12:39;0.57;;;0.57;;
31128;SDS011;17777;48.770;8.944;2024-02-26T06:15:05;0.40;;;0.40;;
31128;SDS011;17777;48.770;8.944;2024-02-26T06:17:32;0.60;;;0.40;;
31128;SDS011;17777;48.770;8.944;2024-02-26T06:19:58;2.40;;;0.85;;
31128;SDS011;17777;48.770;8.944;2024-02-26T06:22:25;0.63;;;0.60;;
31128;SDS011;17777;48.770;8.944;2024-02-26T06:24:51;1.67;;;0.90;;
31128;SDS011;17777;48.770;8.944;2024-02-26T06:27:17;1.00;;;0.68;;
31128;SDS011;17777;48.770;8.944;2024-02-26T06:29:43;1.42;;;0.90;;
31128;SDS011;17777;48.770;8.944;2024-02-26T06:32:09;0.77;;;0.70;;
31128;SDS011;17777;48.770;8.944;2024-02-26T06:34:35;0.50;;;0.50;;
31128;SDS011;17777;48.770;8.944;2024-02-26T06:37:01;0.73;;;0.60;;
31128;SDS011;17777;48.770;8.944;2024-02-26T06:39:28;0.70;;;0.70;;
31128;SDS011;17777;48.770;8.944;2024-02-26T06:41:54;1.30;;;0.77;;
31128;SDS011;17777;48.770;8.944;2024-02-26T06:44:26;1.17;;;0.90;;
31128;SDS011;17777;48.770;8.944;2024-02-26T06:47:00;1.00;;;0.90;;
31128;SDS011;17777;48.770;8.944;2024-02-26T06:49:26;1.73;;;0.80;;
31128;SDS011;17777;48.770;8.944;2024-02-26T06:51:53;0.82;;;0.65;;
31128;SDS011;17777;48.770;8.944;2024-02-26T06:54:19;1.42;;;0.95;;
31128;SDS011;17777;48.770;8.944;2024-02-26T06:56:46;3.35;;;0.80;;
31128;SDS011;17777;48.770;8.944;2024-02-26T06:59:12;2.22;;;0.80;;
31128;SDS011;17777;48.770;8.944;2024-02-26T07:01:40;1.40;;;0.73;;
31128;SDS011;17777;48.770;8.944;2024-02-26T07:04:06;2.78;;;1.50;;
31128;SDS011;17777;48.770;8.944;2024-02-26T07:06:32;2.70;;;1.50;;
31128;SDS011;17777;48.770;8.944;2024-02-26T07:08:58;3.03;;;1.20;;
31128;SDS011;17777;48.770;8.944;2024-02-26T07:11:24;1.20;;;0.95;;
31128;SDS011;17777;48.770;8.944;2024-02-26T07:13:50;1.77;;;1.05;;
31128;SDS011;17777;48.770;8.944;2024-02-26T07:16:16;2.90;;;0.93;;
31128;SDS011;17777;48.770;8.944;2024-02-26T07:18:42;5.03;;;1.63;;
31128;SDS011;17777;48.770;8.944;2024-02-26T07:21:14;1.10;;;0.90;;
31128;SDS011;17777;48.770;8.944;2024-02-26T07:23:39;1.10;;;0.88;;
31128;SDS011;17777;48.770;8.944;2024-02-26T07:26:05;1.27;;;0.73;;
31128;SDS011;17777;48.770;8.944;2024-02-26T07:28:33;1.20;;;0.63;;
31128;SDS011;17777;48.770;8.944;2024-02-26T07:30:59;1.20;;;0.65;;
31128;SDS011;17777;48.770;8.944;2024-02-26T07:33:26;0.70;;;0.60;;
31128;SDS011;17777;48.770;8.944;2024-02-26T07:35:51;0.43;;;0.40;;
31128;SDS011;17777;48.770;8.944;2024-02-26T07:38:18;1.00;;;0.52;;
31128;SDS011;17777;48.770;8.944;2024-02-26T07:40:44;0.82;;;0.50;;
31128;SDS011;17777;48.770;8.944;2024-02-26T07:43:10;0.98;;;0.70;;
31128;SDS011;17777;48.770;8.944;2024-02-26T07:45:36;1.38;;;1.00;;
31128;SDS011;17777;48.770;8.944;2024-02-26T07:48:02;2.85;;;1.00;;
31128;SDS011;17777;48.770;8.944;2024-02-26T07:50:28;2.13;;;0.80;;
31128;SDS011;17777;48.770;8.944;2024-02-26T07:52:54;3.53;;;0.80;;
31128;SDS011;17777;48.770;8.944;2024-02-26T07:55:19;2.05;;;0.88;;
31128;SDS011;17777;48.770;8.944;2024-02-26T07:57:45;1.10;;;0.95;;
31128;SDS011;17777;48.770;8.944;2024-02-26T08:00:11;3.38;;;0.80;;
31128;SDS011;17777;48.770;8.944;2024-02-26T08:02:41;1.95;;;0.82;;
31128;SDS011;17777;48.770;8.944;2024-02-26T08:05:09;2.75;;;0.93;;
31128;SDS011;17777;48.770;8.944;2024-02-26T08:07:38;5.35;;;0.73;;
31128;SDS011;17777;48.770;8.944;2024-02-26T08:10:04;2.50;;;0.77;;
31128;SDS011;17777;48.770;8.944;2024-02-26T08:12:30;1.00;;;0.90;;
31128;SDS011;17777;48.770;8.944;2024-02-26T08:14:56;2.90;;;0.70;;
31128;SDS011;17777;48.770;8.944;2024-02-26T08:17:23;1.75;;;0.88;;
31128;SDS011;17777;48.770;8.944;2024-02-26T08:19:49;1.10;;;1.00;;
31128;SDS011;17777;48.770;8.944;2024-02-26T08:22:14;1.60;;;1.02;;
31128;SDS011;17777;48.770;8.944;2024-02-26T08:24:43;4.30;;;1.10;;
31128;SDS011;17777;48.770;8.944;2024-02-26T08:27:09;0.80;;;0.80;;
31128;SDS011;17777;48.770;8.944;2024-02-26T08:29:35;1.08;;;0.90;;
31128;SDS011;17777;48.770;8.944;2024-02-26T08:32:01;1.50;;;0.90;;
31128;SDS011;17777;48.770;8.944;2024-02-26T08:34:27;1.00;;;0.82;;
31128;SDS011;17777;48.770;8.944;2024-02-26T08:36:53;1.80;;;1.10;;
31128;SDS011;17777;48.770;8.944;2024-02-26T08:39:19;1.58;;;0.90;;
31128;SDS011;17777;48.770;8.944;2024-02-26T08:41:46;1.05;;;0.90;;
31128;SDS011;17777;48.770;8.944;2024-02-26T08:44:11;1.10;;;0.80;;
31128;SDS011;17777;48.770;8.944;2024-02-26T08:46:37;0.85;;;0.68;;
31128;SDS011;17777;48.770;8.944;2024-02-26T08:49:03;0.80;;;0.63;;
31128;SDS011;17777;48.770;8.944;2024-02-26T08:51:30;1.83;;;0.88;;
31128;SDS011;17777;48.770;8.944;2024-02-26T08:53:56;1.52;;;0.73;;
31128;SDS011;17777;48.770;8.944;2024-02-26T08:56:21;0.98;;;0.85;;
31128;SDS011;17777;48.770;8.944;2024-02-26T08:58:47;1.65;;;0.70;;
31128;SDS011;17777;48.770;8.944;2024-02-26T09:01:18;0.77;;;0.75;;
31128;SDS011;17777;48.770;8.944;2024-02-26T09:03:44;1.83;;;0.80;;
31128;SDS011;17777;48.770;8.944;2024-02-26T09:06:10;0.77;;;0.60;;
31128;SDS011;17777;48.770;8.944;2024-02-26T09:08:40;1.45;;;0.75;;
31128;SDS011;17777;48.770;8.944;2024-02-26T09:11:06;0.95;;;0.75;;
31128;SDS011;17777;48.770;8.944;2024-02-26T09:13:32;2.45;;;0.50;;
31128;SDS011;17777;48.770;8.944;2024-02-26T09:15:58;0.63;;;0.50;;
31128;SDS011;17777;48.770;8.944;2024-02-26T09:18:24;0.73;;;0.70;;
31128;SDS011;17777;48.770;8.944;2024-02-26T09:20:50;1.48;;;0.77;;
31128;SDS011;17777;48.770;8.944;2024-02-26T09:23:16;1.98;;;0.80;;
31128;SDS011;17777;48.770;8.944;2024-02-26T09:25:42;0.57;;;0.57;;
31128;SDS011;17777;48.770;8.944;2024-02-26T09:28:07;0.90;;;0.45;;
31128;SDS011;17777;48.770;8.944;2024-02-26T09:30:33;1.00;;;0.73;;
31128;SDS011;17777;48.770;8.944;2024-02-26T09:32:59;1.08;;;0.70;;
31128;SDS011;17777;48.770;8.944;2024-02-26T09:35:25;4.13;;;2.17;;
31128;SDS011;17777;48.770;8.944;2024-02-26T09:37:52;4.40;;;2.80;;
31128;SDS011;17777;48.770;8.944;2024-02-26T09:40:18;7.95;;;2.90;;
31128;SDS011;17777;48.770;8.944;2024-02-26T09:42:44;3.03;;;1.98;;
31128;SDS011;17777;48.770;8.944;2024-02-26T09:45:17;2.83;;;2.03;;
31128;SDS011;17777;48.770;8.944;2024-02-26T09:47:45;1.80;;;1.38;;
31128;SDS011;17777;48.770;8.944;2024-02-26T09:50:16;1.75;;;1.27;;
31128;SDS011;17777;48.770;8.944;2024-02-26T09:52:43;2.00;;;1.27;;
31128;SDS011;17777;48.770;8.944;2024-02-26T09:55:09;2.05;;;1.20;;
31128;SDS011;17777;48.770;8.944;2024-02-26T09:57:38;1.40;;;0.93;;
31128;SDS011;17777;48.770;8.944;2024-02-26T10:00:11;1.60;;;0.93;;
31128;SDS011;17777;48.770;8.944;2024-02-26T10:02:45;1.00;;;0.70;;
31128;SDS011;17777;48.770;8.944;2024-02-26T10:05:14;1.20;;;0.65;;
31128;SDS011;17777;48.770;8.944;2024-02-26T10:07:46;3.15;;;0.65;;
31128;SDS011;17777;48.770;8.944;2024-02-26T10:10:13;0.70;;;0.60;;
31128;SDS011;17777;48.770;8.944;2024-02-26T10:12:39;0.55;;;0.52;;
31128;SDS011;17777;48.770;8.944;2024-02-26T10:15:05;0.80;;;0.73;;
31128;SDS011;17777;48.770;8.944;2024-02-26T10:17:32;0.60;;;0.60;;
31128;SDS011;17777;48.770;8.944;2024-02-26T10:20:11;0.50;;;0.50;;
31128;SDS011;17777;48.770;8.944;2024-02-26T10:22:42;0.45;;;0.45;;
31128;SDS011;17777;48.770;8.944;2024-02-26T10:25:09;0.73;;;0.50;;
31128;SDS011;17777;48.770;8.944;2024-02-26T10:27:35;0.80;;;0.60;;
31128;SDS011;17777;48.770;8.944;2024-02-26T10:30:04;0.95;;;0.57;;
31128;SDS011;17777;48.770;8.944;2024-02-26T10:32:51;0.90;;;0.50;;
31128;SDS011;17777;48.770;8.944;2024-02-26T10:35:17;0.93;;;0.60;;
31128;SDS011;17777;48.770;8.944;2024-02-26T10:37:47;0.55;;;0.50;;
31128;SDS011;17777;48.770;8.944;2024-02-26T10:40:14;0.90;;;0.50;;
31128;SDS011;17777;48.770;8.944;2024-02-26T10:42:41;0.90;;;0.65;;
31128;SDS011;17777;48.770;8.944;2024-02-26T10:45:08;0.70;;;0.70;;
31128;SDS011;17777;48.770;8.944;2024-02-26T10:47:35;0.40;;;0.40;;
31128;SDS011;17777;48.770;8.944;2024-02-26T10:50:02;0.73;;;0.50;;
31128;SDS011;17777;48.770;8.944;2024-02-26T10:52:33;0.80;;;0.70;;
31128;SDS011;17777;48.770;8.944;2024-02-26T10:55:02;0.93;;;0.60;;
31128;SDS011;17777;48.770;8.944;2024-02-26T10:57:33;0.80;;;0.70;;
31128;SDS011;17777;48.770;8.944;2024-02-26T11:00:05;0.70;;;0.60;;
31128;SDS011;17777;48.770;8.944;2024-02-26T11:02:33;0.82;;;0.70;;
31128;SDS011;17777;48.770;8.944;2024-02-26T11:05:02;0.80;;;0.80;;
31128;SDS011;17777;48.770;8.944;2024-02-26T11:07:29;1.50;;;0.70;;
31128;SDS011;17777;48.770;8.944;2024-02-26T11:09:57;1.02;;;0.75;;
31128;SDS011;17777;48.770;8.944;2024-02-26T11:12:25;0.77;;;0.70;;
31128;SDS011;17777;48.770;8.944;2024-02-26T11:14:53;2.10;;;0.80;;
31128;SDS011;17777;48.770;8.944;2024-02-26T11:17:22;0.57;;;0.47;;
31128;SDS011;17777;48.770;8.944;2024-02-26T11:19:57;1.70;;;0.55;;
31128;SDS011;17777;48.770;8.944;2024-02-26T11:22:24;0.52;;;0.52;;
31128;SDS011;17777;48.770;8.944;2024-02-26T11:24:54;1.35;;;0.93;;
31128;SDS011;17777;48.770;8.944;2024-02-26T11:27:36;2.50;;;0.80;;
31128;SDS011;17777;48.770;8.944;2024-02-26T11:30:15;1.83;;;0.88;;
31128;SDS011;17777;48.770;8.944;2024-02-26T11:32:46;0.70;;;0.63;;
31128;SDS011;17777;48.770;8.944;2024-02-26T11:35:13;2.10;;;0.82;;
31128;SDS011;17777;48.770;8.944;2024-02-26T11:37:50;2.00;;;0.80;;
31128;SDS011;17777;48.770;8.944;2024-02-26T11:40:24;1.02;;;0.80;;
31128;SDS011;17777;48.770;8.944;2024-02-26T11:42:51;3.00;;;0.82;;
31128;SDS011;17777;48.770;8.944;2024-02-26T11:48:11;0.68;;;0.68;;
31128;SDS011;17777;48.770;8.944;2024-02-26T11:50:39;1.20;;;0.90;;
31128;SDS011;17777;48.770;8.944;2024-02-26T11:58:44;1.40;;;1.00;;
31128;SDS011;17777;48.770;8.944;2024-02-26T12:06:55;2.40;;;1.10;;
31128;SDS011;17777;48.770;8.944;2024-02-26T12:09:31;2.05;;;1.10;;
31128;SDS011;17777;48.770;8.944;2024-02-26T12:12:07;4.85;;;1.38;;
31128;SDS011;17777;48.770;8.944;2024-02-26T12:14:39;2.30;;;1.08;;
31128;SDS011;17777;48.770;8.944;2024-02-26T12:17:19;1.42;;;0.90;;
31128;SDS011;17777;48.770;8.944;2024-02-26T12:19:47;1.52;;;1.15;;
31128;SDS011;17777;48.770;8.944;2024-02-26T12:22:13;2.08;;;1.20;;
31128;SDS011;17777;48.770;8.944;2024-02-26T12:24:40;1.02;;;0.93;;
31128;SDS011;17777;48.770;8.944;2024-02-26T12:27:09;1.23;;;0.93;;
31128;SDS011;17777;48.770;8.944;2024-02-26T12:29:34;2.38;;;1.02;;
31128;SDS011;17777;48.770;8.944;2024-02-26T12:32:00;1.25;;;1.02;;
31128;SDS011;17777;48.770;8.944;2024-02-26T12:34:28;3.08;;;1.27;;
31128;SDS011;17777;48.770;8.944;2024-02-26T12:36:57;1.50;;;0.95;;
31128;SDS011;17777;48.770;8.944;2024-02-26T12:39:24;1.02;;;0.90;;
31128;SDS011;17777;48.770;8.944;2024-02-26T12:41:50;3.13;;;1.00;;
31128;SDS011;17777;48.770;8.944;2024-02-26T12:44:16;1.02;;;0.90;;
31128;SDS011;17777;48.770;8.944;2024-02-26T12:46:42;0.93;;;0.70;;
31128;SDS011;17777;48.770;8.944;2024-02-26T12:49:08;1.83;;;0.80;;
31128;SDS011;17777;48.770;8.944;2024-02-26T12:51:39;1.75;;;0.70;;
31128;SDS011;17777;48.770;8.944;2024-02-26T12:54:06;1.08;;;0.73;;
31128;SDS011;17777;48.770;8.944;2024-02-26T12:56:33;2.78;;;0.60;;
31128;SDS011;17777;48.770;8.944;2024-02-26T12:58:59;0.63;;;0.50;;
31128;SDS011;17777;48.770;8.944;2024-02-26T13:01:27;1.98;;;0.70;;
31128;SDS011;17777;48.770;8.944;2024-02-26T13:03:53;0.80;;;0.35;;
31128;SDS011;17777;48.770;8.944;2024-02-26T13:06:20;0.77;;;0.50;;
31128;SDS011;17777;48.770;8.944;2024-02-26T13:08:47;0.50;;;0.40;;
31128;SDS011;17777;48.770;8.944;2024-02-26T13:11:13;0.52;;;0.32;;
31128;SDS011;17777;48.770;8.944;2024-02-26T13:13:39;0.50;;;0.50;;
31128;SDS011;17777;48.770;8.944;2024-02-26T13:16:06;0.30;;;0.25;;
31128;SDS011;17777;48.770;8.944;2024-02-26T13:18:40;0.30;;;0.30;;
31128;SDS011;17777;48.770;8.944;2024-02-26T13:23:42;0.68;;;0.30;;
31128;SDS011;17777;48.770;8.944;2024-02-26T13:26:13;0.38;;;0.38;;
31128;SDS011;17777;48.770;8.944;2024-02-26T13:28:39;0.28;;;0.28;;
31128;SDS011;17777;48.770;8.944;2024-02-26T13:31:05;0.45;;;0.32;;
31128;SDS011;17777;48.770;8.944;2024-02-26T13:33:33;0.45;;;0.40;;
31128;SDS011;17777;48.770;8.944;2024-02-26T13:36:00;0.40;;;0.40;;
31128;SDS011;17777;48.770;8.944;2024-02-26T13:38:26;0.75;;;0.60;;
31128;SDS011;17777;48.770;8.944;2024-02-26T13:40:56;0.57;;;0.40;;
31128;SDS011;17777;48.770;8.944;2024-02-26T13:43:22;0.90;;;0.40;;
31128;SDS011;17777;48.770;8.944;2024-02-26T13:45:48;0.22;;;0.22;;
31128;SDS011;17777;48.770;8.944;2024-02-26T13:48:14;0.30;;;0.30;;
31128;SDS011;17777;48.770;8.944;2024-02-26T13:50:40;0.47;;;0.40;;
31128;SDS011;17777;48.770;8.944;2024-02-26T13:53:13;0.40;;;0.40;;
31128;SDS011;17777;48.770;8.944;2024-02-26T13:55:39;0.50;;;0.38;;
31128;SDS011;17777;48.770;8.944;2024-02-26T13:58:08;0.70;;;0.50;;
31128;SDS011;17777;48.770;8.944;2024-02-26T14:00:37;0.30;;;0.30;;
31128;SDS011;17777;48.770;8.944;2024-02-26T14:03:03;0.70;;;0.40;;
31128;SDS011;17777;48.770;8.944;2024-02-26T14:05:29;0.50;;;0.40;;
31128;SDS011;17777;48.770;8.944;2024-02-26T14:07:55;0.47;;;0.47;;
31128;SDS011;17777;48.770;8.944;2024-02-26T14:10:21;1.13;;;0.70;;
31128;SDS011;17777;48.770;8.944;2024-02-26T14:12:47;0.52;;;0.50;;
31128;SDS011;17777;48.770;8.944;2024-02-26T14:15:12;0.50;;;0.40;;
31128;SDS011;17777;48.770;8.944;2024-02-26T14:17:38;0.55;;;0.50;;
31128;SDS011;17777;48.770;8.944;2024-02-26T14:20:04;0.50;;;0.50;;
31128;SDS011;17777;48.770;8.944;2024-02-26T14:22:32;0.93;;;0.50;;
31128;SDS011;17777;48.770;8.944;2024-02-26T14:24:59;0.32;;;0.30;;
31128;SDS011;17777;48.770;8.944;2024-02-26T14:27:24;1.00;;;0.63;;
31128;SDS011;17777;48.770;8.944;2024-02-26T14:29:50;0.95;;;0.40;;
31128;SDS011;17777;48.770;8.944;2024-02-26T14:32:16;1.15;;;0.50;;
31128;SDS011;17777;48.770;8.944;2024-02-26T14:34:42;0.38;;;0.38;;
31128;SDS011;17777;48.770;8.944;2024-02-26T14:37:08;1.25;;;0.47;;
31128;SDS011;17777;48.770;8.944;2024-02-26T14:39:34;1.58;;;0.40;;
31128;SDS011;17777;48.770;8.944;2024-02-26T14:42:00;0.98;;;0.47;;
31128;SDS011;17777;48.770;8.944;2024-02-26T14:44:26;2.15;;;0.40;;
31128;SDS011;17777;48.770;8.944;2024-02-26T14:46:52;1.65;;;0.32;;
31128;SDS011;17777;48.770;8.944;2024-02-26T14:49:18;1.20;;;0.43;;
31128;SDS011;17777;48.770;8.944;2024-02-26T14:51:44;0.50;;;0.50;;
31128;SDS011;17777;48.770;8.944;2024-02-26T14:54:14;0.30;;;0.30;;
31128;SDS011;17777;48.770;8.944;2024-02-26T14:56:40;0.70;;;0.40;;
31128;SDS011;17777;48.770;8.944;2024-02-26T14:59:05;1.92;;;0.57;;
31128;SDS011;17777;48.770;8.944;2024-02-26T15:01:31;0.40;;;0.40;;
31128;SDS011;17777;48.770;8.944;2024-02-26T15:03:58;0.30;;;0.30;;